createdAt,value
2022-09-22T00:01:22.069Z,7.90
2022-09-22T00:03:51.653Z,6.97
2022-09-22T00:06:21.049Z,7.03
2022-09-22T00:08:51.598Z,7.63
2022-09-22T00:11:20.607Z,7.83
2022-09-22T00:13:50.956Z,7.97
2022-09-22T00:16:19.741Z,6.90
2022-09-22T00:18:47.291Z,6.80
2022-09-22T00:21:16.435Z,7.00
2022-09-22T00:23:44.640Z,6.63
2022-09-22T00:26:15.533Z,6.33
2022-09-22T00:28:45.130Z,7.30
2022-09-22T00:31:15.808Z,6.37
2022-09-22T00:33:43.462Z,6.40
2022-09-22T00:36:11.212Z,8.00
2022-09-22T00:38:40.132Z,8.10
2022-09-22T00:41:10.859Z,7.80
2022-09-22T00:43:40.135Z,7.90
2022-09-22T00:46:14.679Z,9.10
2022-09-22T00:48:45.786Z,9.20
2022-09-22T00:51:14.950Z,8.00
2022-09-22T00:53:42.605Z,8.80
2022-09-22T00:56:12.580Z,9.00
2022-09-22T00:58:44.882Z,9.60
2022-09-22T01:01:12.710Z,9.67
2022-09-22T01:03:40.306Z,9.00
2022-09-22T01:06:09.922Z,9.43
2022-09-22T01:08:38.571Z,9.40
2022-09-22T01:11:07.230Z,9.63
2022-09-22T01:13:43.255Z,8.47
2022-09-22T01:16:29.402Z,8.80
2022-09-22T01:19:11.653Z,9.40
2022-09-22T01:21:44.287Z,10.63
2022-09-22T01:24:36.479Z,9.43
2022-09-22T01:27:44.650Z,9.63
2022-09-22T01:30:19.263Z,9.30
2022-09-22T01:33:12.355Z,9.40
2022-09-22T01:35:49.342Z,10.27
2022-09-22T01:38:24.718Z,9.40
2022-09-22T01:40:55.616Z,9.07
2022-09-22T01:43:29.138Z,8.60
2022-09-22T01:45:58.451Z,9.20
2022-09-22T01:48:29.054Z,9.10
2022-09-22T01:50:59.647Z,9.17
2022-09-22T01:53:30.732Z,9.63
2022-09-22T01:56:03.235Z,8.50
2022-09-22T01:58:33.236Z,8.03
2022-09-22T02:01:12.132Z,9.30
2022-09-22T02:03:44.366Z,8.60
2022-09-22T02:06:14.149Z,8.97
2022-09-22T02:08:44.425Z,8.80
2022-09-22T02:11:15.756Z,8.40
2022-09-22T02:13:43.972Z,7.87
2022-09-22T02:16:14.691Z,8.77
2022-09-22T02:18:45.813Z,8.13
2022-09-22T02:21:13.860Z,7.37
2022-09-22T02:23:42.552Z,8.63
2022-09-22T02:26:10.722Z,7.87
2022-09-22T02:28:40.239Z,8.83
2022-09-22T02:31:24.852Z,8.87
2022-09-22T02:33:54.140Z,7.60
2022-09-22T02:36:30.429Z,8.80
2022-09-22T02:39:01.539Z,8.33
2022-09-22T02:41:34.905Z,8.30
2022-09-22T02:44:04.588Z,7.97
2022-09-22T02:46:38.156Z,7.00
2022-09-22T02:49:09.868Z,8.50
2022-09-22T02:51:37.642Z,8.00
2022-09-22T02:54:06.432Z,8.03
2022-09-22T02:56:34.345Z,7.93
2022-09-22T02:59:02.117Z,7.50
2022-09-22T03:01:29.674Z,6.80
2022-09-22T03:03:57.253Z,7.30
2022-09-22T03:06:26.115Z,7.90
2022-09-22T03:08:53.685Z,8.70
2022-09-22T03:11:21.254Z,7.57
2022-09-22T03:13:48.801Z,7.60
2022-09-22T03:16:16.485Z,7.60
2022-09-22T03:18:44.198Z,7.20
2022-09-22T03:21:11.749Z,7.30
2022-09-22T03:23:40.639Z,7.57
2022-09-22T03:26:08.231Z,6.90
2022-09-22T03:28:35.881Z,7.10
2022-09-22T03:31:03.441Z,9.10
2022-09-22T03:33:31.147Z,8.70
2022-09-22T03:35:58.717Z,7.50
2022-09-22T03:38:26.322Z,7.40
2022-09-22T03:40:55.184Z,7.07
2022-09-22T03:43:22.819Z,7.30
2022-09-22T03:45:57.028Z,7.23
2022-09-22T03:48:24.956Z,7.30
2022-09-22T03:50:52.537Z,6.97
2022-09-22T03:53:20.356Z,7.60
2022-09-22T03:55:47.942Z,6.37
2022-09-22T03:58:17.052Z,7.80
2022-09-22T04:00:44.870Z,8.23
2022-09-22T04:03:13.572Z,7.70
2022-09-22T04:05:41.030Z,7.30
2022-09-22T04:08:08.485Z,7.10
2022-09-22T04:10:36.256Z,6.73
2022-09-22T04:13:04.162Z,6.77
2022-09-22T04:15:33.119Z,6.80
2022-09-22T04:18:00.585Z,6.80
2022-09-22T04:20:28.183Z,7.70
2022-09-22T04:22:55.628Z,6.47
2022-09-22T04:25:23.189Z,7.27
2022-09-22T04:27:50.926Z,7.13
2022-09-22T04:30:18.716Z,6.47
2022-09-22T04:32:47.633Z,6.87
2022-09-22T04:35:15.340Z,8.50
2022-09-22T04:37:43.301Z,6.43
2022-09-22T04:40:12.025Z,6.53
2022-09-22T04:42:39.811Z,5.83
2022-09-22T04:45:08.428Z,6.63
2022-09-22T04:47:35.985Z,6.67
2022-09-22T04:50:05.098Z,7.50
2022-09-22T04:52:32.571Z,6.27
2022-09-22T04:55:00.038Z,6.57
2022-09-22T04:57:27.733Z,6.30
2022-09-22T04:59:55.237Z,7.40
2022-09-22T05:02:22.792Z,6.00
2022-09-22T05:04:50.267Z,7.87
2022-09-22T05:07:19.064Z,6.40
2022-09-22T05:09:47.621Z,6.03
2022-09-22T05:12:15.202Z,5.70
2022-09-22T05:14:42.754Z,6.20
2022-09-22T05:17:10.521Z,6.23
2022-09-22T05:19:38.833Z,6.30
2022-09-22T05:22:06.333Z,5.63
2022-09-22T05:24:35.183Z,5.73
2022-09-22T05:27:02.728Z,6.40
2022-09-22T05:29:30.338Z,6.23
2022-09-22T05:31:59.589Z,6.43
2022-09-22T05:34:27.309Z,5.90
2022-09-22T05:36:54.915Z,5.77
2022-09-22T05:39:22.717Z,6.00
2022-09-22T05:41:51.563Z,5.93
2022-09-22T05:44:19.444Z,6.00
2022-09-22T05:46:46.941Z,6.97
2022-09-22T05:49:14.620Z,5.73
2022-09-22T05:51:42.580Z,6.20
2022-09-22T05:54:11.433Z,5.80
2022-09-22T05:56:39.110Z,5.80
2022-09-22T05:59:08.179Z,6.50
2022-09-22T06:01:35.798Z,6.40
2022-09-22T06:04:03.324Z,6.23
2022-09-22T06:06:30.829Z,7.23
2022-09-22T06:08:58.549Z,7.63
2022-09-22T06:11:26.159Z,11.77
2022-09-22T06:13:53.986Z,12.40
2022-09-22T06:16:23.107Z,9.07
2022-09-22T06:18:50.622Z,8.23
2022-09-22T06:21:18.827Z,8.07
2022-09-22T06:23:46.416Z,8.30
2022-09-22T06:26:13.918Z,8.13
2022-09-22T06:28:41.467Z,7.80
2022-09-22T06:31:09.032Z,8.07
2022-09-22T06:33:37.954Z,7.50
2022-09-22T06:36:07.953Z,8.03
2022-09-22T06:38:35.497Z,8.03
2022-09-22T06:41:04.222Z,7.57
2022-09-22T06:43:37.797Z,7.10
2022-09-22T06:46:05.366Z,7.37
2022-09-22T06:48:33.468Z,7.20
2022-09-22T06:51:02.328Z,7.67
2022-09-22T06:53:29.941Z,7.40
2022-09-22T06:55:58.396Z,7.50
2022-09-22T06:58:27.920Z,8.00
2022-09-22T07:00:55.701Z,6.43
2022-09-22T07:03:26.245Z,7.80
2022-09-22T07:05:55.306Z,6.60
2022-09-22T07:08:24.881Z,7.37
2022-09-22T07:10:56.340Z,9.00
2022-09-22T07:13:24.254Z,7.30
2022-09-22T07:15:52.028Z,7.47
2022-09-22T07:18:19.771Z,8.03
2022-09-22T07:20:47.373Z,7.40
2022-09-22T07:23:18.960Z,7.60
2022-09-22T07:25:56.239Z,7.53
2022-09-22T07:28:23.925Z,7.90
2022-09-22T07:30:51.500Z,7.93
2022-09-22T07:33:20.230Z,7.40
2022-09-22T07:35:47.714Z,8.50
2022-09-22T07:38:16.242Z,7.97
2022-09-22T07:40:54.024Z,8.17
2022-09-22T07:43:21.584Z,7.60
2022-09-22T07:45:54.310Z,7.47
2022-09-22T07:48:37.329Z,7.37
2022-09-22T07:51:06.215Z,8.53
2022-09-22T07:53:33.786Z,8.00
2022-09-22T07:56:08.238Z,8.23
2022-09-22T07:58:35.845Z,8.07
2022-09-22T08:01:08.085Z,7.60
2022-09-22T08:03:37.538Z,8.73
2022-09-22T08:06:10.044Z,8.67
2022-09-22T08:08:42.106Z,7.50
2022-09-22T08:11:15.011Z,7.33
2022-09-22T08:13:43.648Z,9.07
2022-09-22T08:16:11.804Z,6.70
2022-09-22T08:18:40.699Z,6.90
2022-09-22T08:21:08.293Z,7.20
2022-09-22T08:23:36.021Z,7.60
2022-09-22T08:26:05.432Z,6.70
2022-09-22T08:28:34.713Z,6.60
2022-09-22T08:31:03.144Z,7.00
2022-09-22T08:33:31.990Z,6.90
2022-09-22T08:36:03.578Z,7.27
2022-09-22T08:38:34.153Z,6.10
2022-09-22T08:41:18.062Z,6.50
2022-09-22T08:43:50.273Z,8.00
2022-09-22T08:46:17.968Z,6.37
2022-09-22T08:49:04.413Z,5.20
2022-09-22T08:51:55.300Z,5.80
2022-09-22T08:54:26.924Z,5.50
2022-09-22T08:57:12.778Z,5.60
2022-09-22T08:59:45.638Z,5.83
2022-09-22T09:02:41.109Z,5.07
2022-09-22T09:05:24.387Z,5.23
2022-09-22T09:07:58.706Z,4.90
2022-09-22T09:10:35.626Z,5.07
2022-09-22T09:13:13.632Z,5.77
2022-09-22T09:15:53.653Z,4.30
2022-09-22T09:18:26.569Z,4.60
2022-09-22T09:20:54.462Z,4.70
2022-09-22T09:25:21.901Z,4.53
2022-09-22T09:26:14.656Z,4.40
2022-09-22T09:28:45.395Z,4.70
2022-09-22T09:31:19.876Z,5.00
2022-09-22T09:33:55.216Z,5.50
2022-09-22T09:36:23.318Z,4.40
2022-09-22T09:38:53.818Z,4.73
2022-09-22T09:41:23.606Z,5.40
2022-09-22T09:43:54.453Z,4.37
2022-09-22T09:46:34.417Z,3.60
2022-09-22T09:49:10.628Z,3.60
2022-09-22T09:51:43.645Z,3.10
2022-09-22T09:54:17.233Z,2.50
2022-09-22T09:57:07.678Z,2.40
2022-09-22T09:59:53.380Z,1.90
2022-09-22T10:02:25.115Z,2.10
2022-09-22T10:04:54.178Z,1.90
2022-09-22T10:07:26.098Z,2.20
2022-09-22T10:09:54.846Z,1.93
2022-09-22T10:12:29.381Z,2.87
2022-09-22T10:14:58.609Z,2.63
2022-09-22T10:17:31.210Z,1.70
2022-09-22T10:20:17.715Z,2.30
2022-09-22T10:22:45.432Z,2.23
2022-09-22T10:25:22.815Z,1.90
2022-09-22T10:28:01.223Z,2.10
2022-09-22T10:30:37.124Z,2.10
2022-09-22T10:33:12.673Z,1.50
2022-09-22T10:35:42.355Z,3.20
2022-09-22T10:38:16.250Z,1.77
2022-09-22T10:40:48.265Z,1.57
2022-09-22T10:43:27.536Z,1.20
2022-09-22T10:46:03.554Z,1.27
2022-09-22T10:48:38.981Z,1.40
2022-09-22T10:51:10.095Z,1.50
2022-09-22T10:53:48.187Z,2.03
2022-09-22T10:56:21.232Z,1.10
2022-09-22T10:59:03.950Z,0.97
2022-09-22T11:01:40.487Z,0.80
2022-09-22T11:04:19.031Z,0.90
2022-09-22T11:07:20.520Z,1.10
2022-09-22T11:10:06.519Z,1.17
2022-09-22T11:12:43.908Z,1.37
2022-09-22T11:15:24.216Z,1.20
2022-09-22T11:18:05.121Z,1.30
2022-09-22T11:20:36.721Z,1.77
2022-09-22T11:23:29.936Z,1.30
2022-09-22T11:26:31.413Z,1.50
2022-09-22T11:29:20.334Z,1.13
2022-09-22T11:31:50.625Z,1.30
2022-09-22T11:34:42.917Z,1.47
2022-09-22T11:37:27.747Z,1.23
2022-09-22T11:40:27.119Z,1.10
2022-09-22T11:43:02.100Z,1.40
2022-09-22T11:45:44.658Z,2.00
2022-09-22T11:48:22.931Z,1.80
2022-09-22T11:51:02.322Z,1.50
2022-09-22T11:53:48.128Z,1.20
2022-09-22T11:56:31.366Z,1.50
2022-09-22T11:59:02.085Z,1.20
2022-09-22T12:01:32.946Z,1.53
2022-09-22T12:04:04.958Z,1.60
2022-09-22T12:06:38.016Z,1.43
2022-09-22T12:09:12.503Z,1.30
2022-09-22T12:11:40.470Z,1.53
2022-09-22T12:14:09.983Z,1.20
2022-09-22T12:16:41.881Z,1.50
2022-09-22T12:19:17.095Z,1.83
2022-09-22T12:21:51.214Z,1.33
2022-09-22T12:24:20.839Z,1.23
2022-09-22T12:26:50.013Z,1.30
2022-09-22T12:29:25.976Z,1.53
2022-09-22T12:31:55.757Z,1.90
2022-09-22T12:34:25.148Z,1.60
2022-09-22T12:36:55.028Z,1.53
2022-09-22T12:39:25.958Z,1.60
2022-09-22T12:41:58.662Z,2.10
2022-09-22T12:44:28.389Z,1.97
2022-09-22T12:46:59.388Z,1.63
2022-09-22T12:49:26.893Z,1.30
2022-09-22T12:51:54.682Z,1.20
2022-09-22T12:54:39.607Z,1.53
2022-09-22T12:57:29.383Z,1.07
2022-09-22T13:00:20.875Z,1.30
2022-09-22T13:02:49.868Z,1.00
2022-09-22T13:05:42.934Z,1.20
2022-09-22T13:08:24.617Z,1.50
2022-09-22T13:11:01.321Z,1.27
2022-09-22T13:13:43.999Z,1.60
2022-09-22T13:16:35.176Z,1.80
2022-09-22T13:19:03.331Z,1.40
2022-09-22T13:21:33.006Z,1.50
2022-09-22T13:24:01.774Z,1.80
2022-09-22T13:26:34.479Z,1.10
2022-09-22T13:29:13.657Z,1.77
2022-09-22T13:31:44.274Z,1.33
2022-09-22T13:34:23.535Z,1.20
2022-09-22T13:36:52.705Z,1.63
2022-09-22T13:39:22.198Z,1.73
2022-09-22T13:41:53.657Z,1.30
2022-09-22T13:44:26.334Z,1.63
2022-09-22T13:46:54.447Z,1.30
2022-09-22T13:49:29.444Z,1.80
2022-09-22T13:51:59.235Z,1.60
2022-09-22T13:54:29.069Z,1.60
2022-09-22T13:56:58.669Z,1.20
2022-09-22T13:59:36.393Z,1.30
2022-09-22T14:02:08.140Z,1.40
2022-09-22T14:04:35.882Z,1.60
2022-09-22T14:07:09.526Z,1.97
2022-09-22T14:09:39.304Z,1.70
2022-09-22T14:12:11.362Z,1.40
2022-09-22T14:14:40.132Z,1.70
2022-09-22T14:17:09.733Z,1.50
2022-09-22T14:19:39.632Z,1.23
2022-09-22T14:22:14.429Z,1.13
2022-09-22T14:24:45.021Z,1.60
2022-09-22T14:27:20.121Z,1.23
2022-09-22T14:29:49.751Z,1.50
2022-09-22T14:32:22.742Z,1.33
2022-09-22T14:34:52.937Z,1.87
2022-09-22T14:37:26.066Z,1.33
2022-09-22T14:39:55.105Z,1.17
2022-09-22T14:42:27.565Z,1.13
2022-09-22T14:45:07.675Z,1.17
2022-09-22T14:47:39.369Z,1.37
2022-09-22T14:50:19.146Z,1.13
2022-09-22T14:52:56.425Z,1.43
2022-09-22T14:55:30.135Z,1.43
2022-09-22T14:58:03.866Z,1.80
2022-09-22T15:00:50.110Z,1.90
2022-09-22T15:03:21.580Z,1.37
2022-09-22T15:05:50.247Z,1.83
2022-09-22T15:08:19.571Z,2.00
2022-09-22T15:10:54.688Z,1.33
2022-09-22T15:13:31.332Z,3.27
2022-09-22T15:15:59.350Z,6.30
2022-09-22T15:18:30.566Z,1.33
2022-09-22T15:21:00.004Z,1.97
2022-09-22T15:23:31.687Z,1.10
2022-09-22T15:26:04.862Z,1.50
2022-09-22T15:28:37.821Z,1.23
2022-09-22T15:31:06.156Z,1.40
2022-09-22T15:33:34.037Z,1.40
2022-09-22T15:36:02.819Z,1.30
2022-09-22T15:38:32.455Z,1.70
2022-09-22T15:41:00.640Z,5.37
2022-09-22T15:43:30.878Z,21.33
2022-09-22T15:46:02.668Z,3.20
2022-09-22T15:48:32.208Z,1.63
2022-09-22T15:51:03.675Z,1.50
2022-09-22T15:53:31.835Z,2.00
2022-09-22T15:56:00.777Z,4.73
2022-09-22T15:58:31.488Z,12.57
2022-09-22T16:00:59.037Z,2.30
2022-09-22T16:03:27.917Z,1.97
2022-09-22T16:05:58.015Z,1.60
2022-09-22T16:08:28.824Z,1.83
2022-09-22T16:10:56.710Z,1.93
2022-09-22T16:13:24.614Z,1.30
2022-09-22T16:15:52.528Z,1.30
2022-09-22T16:18:20.077Z,1.90
2022-09-22T16:20:51.759Z,1.87
2022-09-22T16:23:19.906Z,1.70
2022-09-22T16:25:53.473Z,2.00
2022-09-22T16:28:20.968Z,1.53
2022-09-22T16:30:48.477Z,1.80
2022-09-22T16:33:16.504Z,2.10
2022-09-22T16:35:44.343Z,1.80
2022-09-22T16:38:13.551Z,1.90
2022-09-22T16:40:41.128Z,1.70
2022-09-22T16:43:09.433Z,1.87
2022-09-22T16:45:50.898Z,1.67
2022-09-22T16:48:18.460Z,1.70
2022-09-22T16:50:45.968Z,6.40
2022-09-22T16:53:15.644Z,4.60
2022-09-22T16:55:49.174Z,2.40
2022-09-22T16:58:16.976Z,1.53
2022-09-22T17:00:44.563Z,2.10
2022-09-22T17:03:12.181Z,2.73
2022-09-22T17:05:39.892Z,1.93
2022-09-22T17:08:08.518Z,2.60
2022-09-22T17:10:37.574Z,2.50
2022-09-22T17:13:05.145Z,3.20
2022-09-22T17:15:35.897Z,2.60
2022-09-22T17:18:04.232Z,4.50
2022-09-22T17:20:31.811Z,4.43
2022-09-22T17:22:59.332Z,3.27
2022-09-22T17:25:29.243Z,2.27
2022-09-22T17:27:58.354Z,2.60
2022-09-22T17:30:26.357Z,2.57
2022-09-22T17:32:54.153Z,2.50
2022-09-22T17:35:21.662Z,2.30
2022-09-22T17:37:51.381Z,3.13
2022-09-22T17:40:18.921Z,2.80
2022-09-22T17:42:47.680Z,2.67
2022-09-22T17:45:16.945Z,2.20
2022-09-22T17:48:01.586Z,2.53
2022-09-22T17:50:46.930Z,2.40
2022-09-22T17:53:31.789Z,2.63
2022-09-22T17:56:04.938Z,2.57
2022-09-22T17:58:32.839Z,1.87
2022-09-22T18:01:01.780Z,2.50
2022-09-22T18:03:29.616Z,2.50
2022-09-22T18:05:57.362Z,2.07
2022-09-22T18:08:25.721Z,2.17
2022-09-22T18:10:54.342Z,2.13
2022-09-22T18:13:21.886Z,2.40
2022-09-22T18:15:50.046Z,3.00
2022-09-22T18:18:19.128Z,2.40
2022-09-22T18:20:46.812Z,3.07
2022-09-22T18:23:14.402Z,3.73
2022-09-22T18:25:42.022Z,2.70
2022-09-22T18:28:09.522Z,3.20
2022-09-22T18:30:39.950Z,2.90
2022-09-22T18:33:07.589Z,3.57
2022-09-22T18:35:36.959Z,2.90
2022-09-22T18:38:04.473Z,3.27
2022-09-22T18:40:32.402Z,3.33
2022-09-22T18:42:59.956Z,3.30
2022-09-22T18:45:28.124Z,4.03
2022-09-22T18:47:59.014Z,4.17
2022-09-22T18:50:26.984Z,4.60
2022-09-22T18:52:56.679Z,4.90
2022-09-22T18:55:24.147Z,5.70
2022-09-22T18:57:51.673Z,5.43
2022-09-22T19:00:20.760Z,4.70
2022-09-22T19:02:48.406Z,5.70
2022-09-22T19:05:16.013Z,4.27
2022-09-22T19:07:46.921Z,4.50
2022-09-22T19:10:18.866Z,4.57
2022-09-22T19:12:46.389Z,4.87
2022-09-22T19:15:18.112Z,6.17
2022-09-22T19:17:46.848Z,5.53
2022-09-22T19:20:17.153Z,7.27
2022-09-22T19:22:45.768Z,9.33
2022-09-22T19:25:13.514Z,7.77
2022-09-22T19:27:42.473Z,6.47
2022-09-22T19:30:11.361Z,6.97
2022-09-22T19:32:40.011Z,6.63
2022-09-22T19:35:09.142Z,7.30
2022-09-22T19:37:36.782Z,6.40
2022-09-22T19:40:05.874Z,6.00
2022-09-22T19:42:39.999Z,5.70
2022-09-22T19:45:10.406Z,6.13
2022-09-22T19:47:39.433Z,5.40
2022-09-22T19:50:10.242Z,6.60
2022-09-22T19:52:38.369Z,6.00
2022-09-22T19:55:06.912Z,6.20
2022-09-22T19:57:40.135Z,7.47
2022-09-22T20:00:10.725Z,7.90
2022-09-22T20:02:41.096Z,8.13
2022-09-22T20:05:17.750Z,8.67
2022-09-22T20:07:45.534Z,9.30
2022-09-22T20:10:13.415Z,7.30
2022-09-22T20:12:41.047Z,6.60
2022-09-22T20:15:15.728Z,6.10
2022-09-22T20:17:46.162Z,7.17
2022-09-22T20:20:15.262Z,6.93
2022-09-22T20:22:42.810Z,8.80
2022-09-22T20:25:21.137Z,8.50
2022-09-22T20:27:48.989Z,10.00
2022-09-22T20:30:18.255Z,9.80
2022-09-22T20:32:46.528Z,10.03
2022-09-22T20:35:15.525Z,10.90
2022-09-22T20:37:43.401Z,10.97
2022-09-22T20:40:15.778Z,9.13
2022-09-22T20:42:45.056Z,8.50
2022-09-22T20:45:13.272Z,8.23
2022-09-22T20:47:42.769Z,8.63
2022-09-22T20:50:11.879Z,7.90
2022-09-22T20:52:41.333Z,8.10
2022-09-22T20:55:10.190Z,7.70
2022-09-22T20:57:38.088Z,7.00
2022-09-22T21:00:06.867Z,6.90
2022-09-22T21:02:34.483Z,6.77
2022-09-22T21:05:03.441Z,6.80
2022-09-22T21:07:32.177Z,6.47
2022-09-22T21:10:17.339Z,6.97
2022-09-22T21:12:44.990Z,6.30
2022-09-22T21:15:13.507Z,7.30
2022-09-22T21:17:43.942Z,6.70
2022-09-22T21:20:13.282Z,6.10
2022-09-22T21:22:40.921Z,5.63
2022-09-22T21:25:10.653Z,5.40
2022-09-22T21:27:38.439Z,5.50
2022-09-22T21:30:08.059Z,5.77
2022-09-22T21:32:35.754Z,4.63
2022-09-22T21:35:03.653Z,4.70
2022-09-22T21:37:32.497Z,5.40
2022-09-22T21:40:00.032Z,5.10
2022-09-22T21:42:27.842Z,5.23
2022-09-22T21:44:55.474Z,4.70
2022-09-22T21:47:23.127Z,5.10
2022-09-22T21:49:51.046Z,5.40
2022-09-22T21:52:18.521Z,4.50
2022-09-22T21:54:47.489Z,4.57
2022-09-22T21:57:14.942Z,5.70
2022-09-22T21:59:42.406Z,4.90
2022-09-22T22:02:09.902Z,4.30
2022-09-22T22:04:37.377Z,4.20
2022-09-22T22:07:04.997Z,5.23
2022-09-22T22:09:32.475Z,5.27
2022-09-22T22:12:02.240Z,5.57
2022-09-22T22:14:32.478Z,4.80
2022-09-22T22:17:02.153Z,4.57
2022-09-22T22:19:29.936Z,4.63
2022-09-22T22:21:57.494Z,4.37
2022-09-22T22:24:37.008Z,4.23
2022-09-22T22:27:07.263Z,4.60
2022-09-22T22:29:36.222Z,5.03
2022-09-22T22:32:04.860Z,5.70
2022-09-22T22:34:32.354Z,4.17
2022-09-22T22:37:00.410Z,4.20
2022-09-22T22:39:28.287Z,4.77
2022-09-22T22:41:55.738Z,4.27
2022-09-22T22:44:24.703Z,4.23
2022-09-22T22:46:52.212Z,4.73
2022-09-22T22:49:20.134Z,4.90
2022-09-22T22:51:49.189Z,4.60
2022-09-22T22:54:16.640Z,5.00
2022-09-22T22:56:46.819Z,4.83
2022-09-22T22:59:16.606Z,4.00
2022-09-22T23:01:45.595Z,4.57
2022-09-22T23:04:13.599Z,4.50
2022-09-22T23:06:43.736Z,4.63
2022-09-22T23:09:13.408Z,4.07
2022-09-22T23:11:41.994Z,4.50
2022-09-22T23:14:11.249Z,4.17
2022-09-22T23:16:40.746Z,3.80
2022-09-22T23:19:11.801Z,3.83
2022-09-22T23:21:39.409Z,3.60
2022-09-22T23:24:08.130Z,4.07
2022-09-22T23:26:37.208Z,4.00
2022-09-22T23:29:05.291Z,4.17
2022-09-22T23:31:33.010Z,4.40
2022-09-22T23:34:00.473Z,4.27
2022-09-22T23:36:30.199Z,3.50
2022-09-22T23:39:03.735Z,3.30
2022-09-22T23:41:32.002Z,3.27
2022-09-22T23:43:59.574Z,3.40
2022-09-22T23:46:27.292Z,3.30
2022-09-22T23:48:55.818Z,3.33
2022-09-22T23:51:23.906Z,3.30
2022-09-22T23:53:53.617Z,3.70
2022-09-22T23:56:21.512Z,3.60
2022-09-22T23:58:49.009Z,3.93
